Alden, Minnesota
Current Conditions -  °F | °C
As of 11:31 PM on Sunday 21 Dec 2014 (Local Time) from KAEL Reporting Station
Haze Haze  
Wind Chill: 29°   Ceiling: 200
Heat Index: 37°   Visibility: 1mi
Dew Point: 37°   Wind: 13mph
Humidity: 100%   Direction: 170°S
Pressure: 29.72"   Gusts: 17mph
Location:  43.67°N, 93.58°W
Report Text: KAEL 220531Z AUTO 17011G15KT 1SM BR OVC002 03/03 A2972 RMK AO2
Loading
Personal Weather Stations






























Interactive Weather Map New forecast layout! Learn more

10-Day Weather Forecast

Advertisements
Track Severe Weather on mobile